Time;durP1;ratioP1;P1;durP2;ratioP2;P2;SDS_P1;SDS_P2;PMS_P1;PMS_P2;Temp;Humidity;BMP_temperature;BMP_pressure;BME280_temperature;BME280_humidity;BME280_pressure;Samples;Min_cycle;Max_cycle;Signal;HPM_P1;HPM_P2
2021/07/19 00:02:02;;;;;;;23.70;15.77;;;21.70;96.30;;;;;;4878474;29;20051;-67
2021/07/19 00:05:09;;;;;;;20.15;14.75;;;21.80;96.10;;;;;;4878652;29;20401;-67
2021/07/19 00:08:13;;;;;;;24.83;15.45;;;22.00;95.50;;;;;;4878837;29;20052;-67
2021/07/19 00:11:21;;;;;;;17.15;13.63;;;22.00;95.00;;;;;;4879013;29;20049;-67
2021/07/19 00:14:26;;;;;;;16.10;13.77;;;22.10;94.70;;;;;;4878576;29;20078;-67
2021/07/19 00:17:31;;;;;;;22.70;13.98;;;22.30;94.40;;;;;;4879035;29;20052;-67
2021/07/19 00:20:35;;;;;;;16.83;13.60;;;22.20;94.10;;;;;;4877887;29;20065;-67
2021/07/19 00:23:39;;;;;;;19.80;14.43;;;21.80;94.60;;;;;;4877731;29;20049;-67
2021/07/19 00:26:47;;;;;;;18.90;12.98;;;21.70;95.00;;;;;;4877734;29;20060;-67
2021/07/19 00:29:52;;;;;;;20.42;13.68;;;21.60;94.90;;;;;;4878541;29;20048;-67
2021/07/19 00:32:56;;;;;;;16.30;13.02;;;21.50;94.70;;;;;;4878106;29;20068;-67
2021/07/19 00:35:59;;;;;;;18.73;12.75;;;21.50;94.80;;;;;;4876948;29;20056;-67
2021/07/19 00:39:11;;;;;;;19.63;12.30;;;21.50;94.90;;;;;;4876783;29;20500;-67
2021/07/19 00:42:15;;;;;;;17.40;12.15;;;21.70;94.40;;;;;;4877570;29;20174;-67
2021/07/19 00:45:22;;;;;;;16.70;12.52;;;21.70;94.10;;;;;;4878223;29;20044;-67
2021/07/19 00:48:26;;;;;;;15.27;12.27;;;21.80;93.90;;;;;;4876578;29;20067;-67
2021/07/19 00:51:31;;;;;;;20.77;12.77;;;21.80;93.90;;;;;;4877209;29;20060;-67
2021/07/19 00:54:42;;;;;;;17.98;12.98;;;21.90;93.80;;;;;;4877720;29;20056;-67
2021/07/19 00:57:50;;;;;;;20.38;12.52;;;21.80;93.90;;;;;;4877272;29;20072;-67
2021/07/19 01:00:55;;;;;;;20.90;11.60;;;21.80;93.90;;;;;;4877374;29;20064;-67
2021/07/19 01:04:01;;;;;;;21.73;12.32;;;21.80;93.90;;;;;;4877997;29;20438;-67
2021/07/19 01:07:09;;;;;;;16.60;12.63;;;21.80;93.80;;;;;;4877698;29;20056;-67
2021/07/19 01:10:17;;;;;;;16.48;11.73;;;21.90;94.10;;;;;;4877323;29;20497;-67
2021/07/19 01:13:21;;;;;;;15.15;12.20;;;22.00;93.80;;;;;;4876802;29;20402;-67
2021/07/19 01:16:30;;;;;;;18.48;12.43;;;22.00;93.00;;;;;;4876858;29;20459;-67
2021/07/19 01:19:37;;;;;;;17.50;11.63;;;21.90;93.20;;;;;;4876700;29;20072;-67
2021/07/19 01:22:46;;;;;;;18.15;12.30;;;21.90;93.30;;;;;;4876797;29;20492;-67
2021/07/19 01:26:02;;;;;;;12.77;11.15;;;21.90;94.00;;;;;;4877450;29;20060;-67
2021/07/19 01:29:07;;;;;;;17.00;12.65;;;22.00;94.00;;;;;;4876863;29;20047;-67
2021/07/19 01:32:15;;;;;;;19.02;12.80;;;22.00;93.80;;;;;;4876635;29;20045;-67
2021/07/19 01:35:21;;;;;;;19.15;11.90;;;22.10;94.10;;;;;;4876500;29;20051;-67
2021/07/19 01:38:27;;;;;;;18.52;12.15;;;22.10;94.30;;;;;;4876626;29;20048;-67
2021/07/19 01:41:36;;;;;;;21.83;13.68;;;22.00;94.60;;;;;;4876539;29;20056;-67
2021/07/19 01:44:42;;;;;;;24.63;14.88;;;22.00;94.90;;;;;;4876414;29;20501;-67
2021/07/19 01:47:50;;;;;;;22.48;17.67;;;22.10;95.00;;;;;;4875761;29;20063;-67
2021/07/19 01:50:58;;;;;;;24.15;17.02;;;22.00;95.00;;;;;;4876641;29;20084;-67
2021/07/19 01:54:08;;;;;;;24.98;19.45;;;22.00;95.30;;;;;;4876522;29;20048;-67
2021/07/19 01:57:13;;;;;;;32.55;19.52;;;22.10;95.30;;;;;;4876295;29;20520;-67
2021/07/19 02:00:38;;;;;;;24.17;15.85;;;22.00;95.10;;;;;;4877251;29;20049;-67
2021/07/19 02:03:47;;;;;;;25.33;14.52;;;22.00;95.20;;;;;;4876497;29;20044;-67
2021/07/19 02:06:52;;;;;;;21.80;14.30;;;22.00;95.10;;;;;;4877306;29;20056;-67
2021/07/19 02:09:58;;;;;;;20.27;14.15;;;22.00;94.80;;;;;;4876215;29;20115;-67
2021/07/19 02:13:27;;;;;;;22.85;14.10;;;21.90;95.20;;;;;;4878200;29;20056;-67
2021/07/19 02:16:33;;;;;;;23.13;14.50;;;21.80;95.50;;;;;;4876611;29;20044;-67
2021/07/19 02:19:41;;;;;;;22.95;13.77;;;21.70;95.60;;;;;;4876181;29;20150;-67
2021/07/19 02:22:51;;;;;;;21.80;14.23;;;21.80;95.70;;;;;;4876239;29;20047;-67
2021/07/19 02:26:20;;;;;;;30.42;14.63;;;21.90;95.80;;;;;;4877144;29;20515;-67
2021/07/19 02:29:26;;;;;;;21.00;15.13;;;21.90;95.60;;;;;;4876322;29;20052;-67
2021/07/19 02:32:31;;;;;;;20.15;15.07;;;21.90;95.70;;;;;;4876058;29;20048;-67
2021/07/19 02:35:36;;;;;;;21.30;15.32;;;21.80;95.80;;;;;;4875928;29;20060;-67
2021/07/19 02:38:43;;;;;;;20.15;14.15;;;21.80;95.80;;;;;;4876141;29;20060;-67
2021/07/19 02:42:00;;;;;;;21.52;13.48;;;21.80;95.90;;;;;;4865729;29;20052;-67
2021/07/19 02:45:08;;;;;;;19.75;13.43;;;21.90;95.60;;;;;;4876078;29;20044;-67
2021/07/19 02:48:21;;;;;;;20.77;13.75;;;22.00;95.40;;;;;;4876085;29;20072;-67
2021/07/19 02:51:31;;;;;;;22.63;14.48;;;22.00;95.10;;;;;;4876341;29;20040;-67
2021/07/19 02:54:51;;;;;;;21.33;14.38;;;22.00;95.00;;;;;;4865325;29;20489;-67
2021/07/19 02:58:04;;;;;;;20.88;14.48;;;22.10;94.70;;;;;;4875998;29;20052;-67
2021/07/19 03:01:11;;;;;;;29.25;15.77;;;22.00;94.70;;;;;;4879415;29;20044;-67
2021/07/19 03:04:16;;;;;;;21.65;15.77;;;22.00;94.70;;;;;;4879098;29;20068;-67
2021/07/19 03:07:22;;;;;;;22.77;15.93;;;21.90;94.80;;;;;;4878816;29;20067;-67
2021/07/19 03:10:32;;;;;;;22.38;15.23;;;21.90;95.10;;;;;;4878987;29;20053;-67
2021/07/19 03:13:40;;;;;;;27.70;16.00;;;21.90;95.20;;;;;;4879212;29;20067;-67
2021/07/19 03:16:48;;;;;;;29.20;15.80;;;21.90;95.40;;;;;;4878909;29;20393;-67
2021/07/19 03:19:57;;;;;;;22.75;15.70;;;21.90;95.60;;;;;;4879146;29;20508;-67
2021/07/19 03:23:04;;;;;;;24.08;15.75;;;21.90;95.10;;;;;;4878911;29;20055;-67
2021/07/19 03:26:12;;;;;;;29.17;16.48;;;21.80;95.30;;;;;;4879112;29;20060;-67
2021/07/19 03:29:20;;;;;;;21.90;15.48;;;21.80;95.70;;;;;;4878859;29;20048;-67
2021/07/19 03:32:45;;;;;;;25.52;16.10;;;21.70;95.90;;;;;;4879616;29;20056;-67
2021/07/19 03:35:54;;;;;;;21.05;14.68;;;21.70;95.80;;;;;;4878687;29;20505;-67
2021/07/19 03:39:04;;;;;;;23.30;14.95;;;21.60;95.80;;;;;;4878714;29;20056;-67
2021/07/19 03:42:27;;;;;;;18.83;14.90;;;21.70;95.50;;;;;;4879361;29;20505;-67
2021/07/19 03:45:33;;;;;;;21.38;14.60;;;21.60;95.50;;;;;;4878327;29;20127;-67
2021/07/19 03:48:40;;;;;;;24.50;14.77;;;21.60;95.50;;;;;;4878823;29;20394;-67
2021/07/19 03:51:48;;;;;;;23.80;15.32;;;21.60;95.60;;;;;;4878304;29;20048;-67
2021/07/19 03:54:53;;;;;;;21.45;14.60;;;21.40;96.00;;;;;;4878547;29;20060;-67
2021/07/19 03:57:58;;;;;;;20.85;14.70;;;21.40;96.00;;;;;;4879799;29;20143;-67
2021/07/19 04:01:03;;;;;;;24.98;16.30;;;21.40;95.70;;;;;;4878290;29;20064;-67
2021/07/19 04:04:16;;;;;;;24.52;15.90;;;21.40;95.50;;;;;;4878150;29;20048;-67
2021/07/19 04:07:30;;;;;;;24.92;15.27;;;21.10;96.10;;;;;;4877976;29;20056;-67
2021/07/19 04:10:35;;;;;;;20.90;16.23;;;21.10;96.20;;;;;;4866828;29;20060;-67
2021/07/19 04:13:41;;;;;;;23.27;16.02;;;21.30;96.00;;;;;;4878124;29;20048;-67
2021/07/19 04:16:45;;;;;;;22.98;15.80;;;21.30;96.00;;;;;;4877711;29;20063;-67
2021/07/19 04:19:50;;;;;;;22.15;15.43;;;21.30;96.10;;;;;;4878813;29;20222;-67
2021/07/19 04:22:56;;;;;;;23.77;16.60;;;21.30;96.00;;;;;;4878507;29;20056;-67
2021/07/19 04:26:01;;;;;;;25.75;16.13;;;21.30;95.80;;;;;;4878447;29;20072;-67
2021/07/19 04:29:05;;;;;;;32.10;16.70;;;21.20;96.20;;;;;;4877769;29;20429;-67
2021/07/19 04:32:19;;;;;;;22.92;16.30;;;21.10;96.60;;;;;;4877907;29;20390;-67
2021/07/19 04:35:23;;;;;;;24.17;16.30;;;21.20;96.70;;;;;;4867453;29;20060;-67
2021/07/19 04:38:30;;;;;;;23.67;16.23;;;21.40;96.40;;;;;;4878549;29;20044;-67
2021/07/19 04:41:40;;;;;;;28.90;16.15;;;21.40;96.10;;;;;;4878209;29;20060;-67
2021/07/19 04:44:45;;;;;;;22.58;16.35;;;21.40;96.20;;;;;;4878366;29;20052;-67
2021/07/19 04:47:51;;;;;;;21.40;15.70;;;21.40;96.70;;;;;;4878087;29;20056;-67
2021/07/19 04:50:55;;;;;;;21.45;15.93;;;21.40;96.40;;;;;;4877505;29;20040;-67
2021/07/19 04:54:00;;;;;;;26.60;16.92;;;21.50;96.00;;;;;;4878150;29;20258;-67
2021/07/19 04:57:08;;;;;;;24.15;15.73;;;21.50;95.60;;;;;;4878263;29;20048;-67
2021/07/19 05:00:13;;;;;;;30.05;17.55;;;21.60;95.70;;;;;;4878110;29;20051;-67
2021/07/19 05:03:19;;;;;;;22.35;15.52;;;21.60;95.70;;;;;;4878208;29;20044;-67
2021/07/19 05:06:25;;;;;;;25.55;16.27;;;21.60;95.70;;;;;;4878073;29;20312;-67
2021/07/19 05:09:31;;;;;;;25.20;15.00;;;21.60;95.30;;;;;;4877124;29;20052;-67
2021/07/19 05:12:36;;;;;;;26.17;15.95;;;21.70;95.40;;;;;;4877695;29;20401;-67
2021/07/19 05:15:45;;;;;;;19.58;15.55;;;21.80;95.20;;;;;;4877804;29;20048;-67
2021/07/19 05:18:49;;;;;;;21.70;15.88;;;21.80;95.20;;;;;;4877733;29;20052;-67
2021/07/19 05:21:53;;;;;;;23.13;14.98;;;21.90;95.10;;;;;;4877906;29;20044;-66
2021/07/19 05:24:58;;;;;;;22.70;14.88;;;21.90;94.80;;;;;;4877470;29;20409;-66
2021/07/19 05:28:09;;;;;;;22.30;14.82;;;21.90;95.20;;;;;;4877569;29;20052;-67
2021/07/19 05:31:13;;;;;;;;;;;22.00;94.90;;;;;;4877202;29;20048;-67
2021/07/19 05:34:17;;;;;;;30.08;14.73;;;22.00;94.90;;;;;;4877239;29;19919;-67
2021/07/19 05:37:24;;;;;;;26.35;15.88;;;22.00;94.70;;;;;;4876670;29;20135;-67
2021/07/19 05:40:29;;;;;;;26.60;15.20;;;22.10;94.70;;;;;;4877565;29;20048;-67
2021/07/19 05:43:33;;;;;;;23.65;15.95;;;22.10;94.70;;;;;;4877538;29;20068;-67
2021/07/19 05:46:37;;;;;;;21.98;15.10;;;22.10;94.70;;;;;;4877264;29;20060;-70
2021/07/19 05:49:41;;;;;;;18.65;13.27;;;22.10;94.90;;;;;;4877690;29;20048;-70
2021/07/19 05:52:46;;;;;;;20.90;13.80;;;22.10;94.50;;;;;;4876598;29;20048;-71
2021/07/19 05:55:54;;;;;;;21.00;13.73;;;22.20;94.20;;;;;;4877298;29;20048;-71
2021/07/19 05:58:58;;;;;;;20.17;13.60;;;22.30;93.90;;;;;;4877619;29;20410;-71
2021/07/19 06:02:06;;;;;;;18.67;12.93;;;22.40;94.00;;;;;;4877490;29;20545;-71
2021/07/19 06:05:11;;;;;;;21.38;13.65;;;22.40;94.10;;;;;;4876597;29;20060;-71
2021/07/19 06:08:15;;;;;;;19.08;12.05;;;22.50;94.10;;;;;;4877001;29;20052;-70
2021/07/19 06:11:22;;;;;;;17.95;12.07;;;22.60;94.00;;;;;;4877227;29;20381;-71
2021/07/19 06:14:26;;;;;;;21.25;12.80;;;22.70;94.00;;;;;;4877041;29;20056;-70
2021/07/19 06:17:36;;;;;;;17.40;12.73;;;22.80;93.80;;;;;;4876952;29;20056;-71
2021/07/19 06:20:40;;;;;;;17.33;11.45;;;22.90;93.60;;;;;;4877235;29;20048;-67
2021/07/19 06:23:44;;;;;;;24.90;13.10;;;22.90;93.20;;;;;;4876743;29;20544;-71
2021/07/19 06:26:49;;;;;;;19.50;11.45;;;23.00;93.10;;;;;;4876685;29;20056;-70
2021/07/19 06:29:53;;;;;;;21.42;12.63;;;23.00;93.50;;;;;;4876862;29;20520;-70
2021/07/19 06:32:57;;;;;;;20.73;14.13;;;23.00;93.70;;;;;;4876210;29;20056;-70
2021/07/19 06:36:01;;;;;;;34.28;13.45;;;23.00;93.60;;;;;;4880376;29;20059;-70
2021/07/19 06:39:05;;;;;;;22.40;10.98;;;22.90;94.00;;;;;;4880387;29;20040;-70
2021/07/19 06:42:09;;;;;;;23.40;10.18;;;22.90;93.50;;;;;;4880344;29;20060;-70
2021/07/19 06:45:14;;;;;;;18.85;10.52;;;22.90;93.10;;;;;;4868681;29;20414;-70
2021/07/19 06:48:19;;;;;;;14.32;9.50;;;22.90;92.60;;;;;;4880238;29;20072;-70
2021/07/19 06:51:23;;;;;;;18.10;8.48;;;22.90;92.20;;;;;;4880443;29;20044;-70
2021/07/19 06:54:28;;;;;;;19.55;8.90;;;23.00;91.90;;;;;;4880079;29;20061;-70
2021/07/19 06:57:32;;;;;;;13.07;8.90;;;23.00;91.60;;;;;;4880142;29;20040;-70
2021/07/19 07:00:37;;;;;;;13.75;9.10;;;23.10;91.70;;;;;;4880051;29;20044;-70
2021/07/19 07:03:41;;;;;;;28.33;10.10;;;23.20;91.80;;;;;;4879953;29;20048;-70
2021/07/19 07:06:45;;;;;;;23.50;10.43;;;23.30;91.80;;;;;;4879811;29;20080;-70
2021/07/19 07:09:49;;;;;;;29.17;10.48;;;23.30;92.00;;;;;;4879762;29;20048;-70
2021/07/19 07:12:53;;;;;;;18.65;10.15;;;23.30;92.20;;;;;;4879677;29;20059;-70
2021/07/19 07:15:57;;;;;;;12.73;9.50;;;23.30;92.30;;;;;;4879465;29;20048;-70
2021/07/19 07:19:01;;;;;;;16.60;9.55;;;23.30;92.30;;;;;;4879434;29;20052;-71
2021/07/19 07:22:05;;;;;;;18.50;10.38;;;23.30;92.40;;;;;;4879586;29;20049;-71
2021/07/19 07:25:12;;;;;;;20.50;10.13;;;23.40;92.50;;;;;;4879618;29;20051;-71
2021/07/19 07:28:16;;;;;;;15.13;8.70;;;23.50;92.40;;;;;;4879519;29;20063;-71
2021/07/19 07:31:26;;;;;;;17.08;9.68;;;23.60;92.30;;;;;;4879621;29;20064;-71
2021/07/19 07:34:31;;;;;;;17.90;10.20;;;23.70;92.00;;;;;;4880467;29;20064;-71
2021/07/19 07:37:38;;;;;;;15.38;9.90;;;23.70;92.00;;;;;;4879419;29;20413;-71
2021/07/19 07:40:43;;;;;;;16.80;9.63;;;23.70;91.70;;;;;;4879377;29;20052;-71
2021/07/19 07:43:47;;;;;;;15.88;9.98;;;23.70;91.50;;;;;;4879026;29;20048;-71
2021/07/19 07:46:51;;;;;;;17.20;10.52;;;23.70;91.20;;;;;;4878231;29;20056;-71
2021/07/19 07:49:56;;;;;;;12.13;8.43;;;23.70;90.90;;;;;;4879159;29;20524;-71
2021/07/19 07:53:00;;;;;;;17.83;9.40;;;23.70;91.00;;;;;;4879061;29;20393;-71
2021/07/19 07:56:05;;;;;;;14.63;9.70;;;23.80;91.00;;;;;;4878859;29;20297;-71
2021/07/19 07:59:10;;;;;;;15.80;9.70;;;23.90;91.30;;;;;;4878901;29;20064;-72
2021/07/19 08:02:14;;;;;;;13.27;8.85;;;23.90;91.20;;;;;;4878852;29;20052;-71
2021/07/19 08:05:19;;;;;;;13.15;9.38;;;23.90;91.20;;;;;;4878038;29;20052;-71
2021/07/19 08:08:23;;;;;;;13.32;7.90;;;24.00;90.90;;;;;;4878758;29;20104;-71
2021/07/19 08:11:28;;;;;;;10.82;8.20;;;24.00;90.80;;;;;;5251811;23;20511;-66
2021/07/19 08:14:32;;;;;;;15.77;9.60;;;24.10;90.60;;;;;;4877826;29;20060;-67
2021/07/19 08:17:36;;;;;;;13.68;8.98;;;24.10;90.20;;;;;;4878692;29;20499;-67
2021/07/19 08:20:42;;;;;;;11.50;7.65;;;24.10;89.50;;;;;;4878306;29;20052;-66
2021/07/19 08:23:46;;;;;;;13.27;9.27;;;24.20;89.80;;;;;;4878828;29;20047;-66
2021/07/19 08:26:50;;;;;;;10.68;7.85;;;24.20;89.60;;;;;;4878770;29;20056;-66
2021/07/19 08:29:54;;;;;;;13.27;7.90;;;24.30;88.90;;;;;;4878587;29;20405;-67
2021/07/19 08:32:58;;;;;;;10.98;7.60;;;24.30;89.20;;;;;;4878529;29;20053;-66
2021/07/19 08:36:06;;;;;;;12.38;8.25;;;24.40;88.60;;;;;;4878884;29;20048;-66
2021/07/19 08:39:10;;;;;;;13.13;8.32;;;24.50;88.50;;;;;;4878647;29;20056;-66
2021/07/19 08:42:15;;;;;;;14.20;8.85;;;24.50;88.90;;;;;;4878365;29;20048;-68
2021/07/19 08:45:20;;;;;;;14.35;9.30;;;24.50;89.10;;;;;;4878298;29;20052;-67
2021/07/19 08:48:24;;;;;;;12.48;9.05;;;24.60;89.10;;;;;;4878171;29;20064;-67
2021/07/19 08:51:29;;;;;;;12.57;9.18;;;24.70;87.00;;;;;;4877551;29;20107;-67
2021/07/19 08:54:34;;;;;;;12.43;8.40;;;24.80;87.70;;;;;;4877247;29;20064;-66
2021/07/19 08:57:40;;;;;;;19.73;10.07;;;24.80;88.40;;;;;;4878041;29;20052;-66
2021/07/19 09:00:45;;;;;;;15.48;9.55;;;24.90;88.60;;;;;;4878057;29;20056;-66
2021/07/19 09:03:49;;;;;;;14.00;9.75;;;25.00;88.40;;;;;;4877982;29;20044;-67
2021/07/19 09:06:54;;;;;;;17.83;10.13;;;25.10;87.80;;;;;;4877776;29;20068;-67
2021/07/19 09:09:59;;;;;;;18.75;8.75;;;25.30;87.90;;;;;;4877687;29;20118;-67
2021/07/19 09:13:06;;;;;;;12.10;8.88;;;25.40;86.70;;;;;;4858926;29;20073;-66
2021/07/19 09:16:10;;;;;;;12.30;8.13;;;25.50;85.00;;;;;;4859131;29;20045;-66
2021/07/19 09:19:25;;;;;;;11.88;8.15;;;25.60;84.10;;;;;;4859120;29;20045;-66
2021/07/19 09:22:31;;;;;;;10.13;6.93;;;25.70;84.30;;;;;;4859157;29;20394;-66
2021/07/19 09:25:35;;;;;;;12.35;8.07;;;25.90;83.20;;;;;;4859252;29;20053;-66
2021/07/19 09:28:39;;;;;;;16.33;8.23;;;26.20;80.90;;;;;;4858434;29;20060;-66
2021/07/19 09:32:00;;;;;;;14.77;8.43;;;26.60;80.50;;;;;;4858344;29;20054;-67
2021/07/19 09:35:10;;;;;;;17.10;8.00;;;26.90;79.50;;;;;;4859278;29;20056;-67
2021/07/19 09:38:17;;;;;;;13.05;7.68;;;27.20;76.70;;;;;;4859027;29;20048;-67
2021/07/19 09:41:23;;;;;;;10.77;7.18;;;27.40;76.90;;;;;;4858750;29;20048;-67
2021/07/19 09:44:27;;;;;;;11.23;7.80;;;27.50;76.60;;;;;;4858288;29;20401;-66
2021/07/19 09:47:36;;;;;;;11.23;7.72;;;27.60;75.00;;;;;;4858892;29;20673;-68
2021/07/19 09:50:44;;;;;;;10.68;7.07;;;27.70;73.80;;;;;;4859159;29;20045;-67
2021/07/19 09:53:48;;;;;;;13.52;8.38;;;27.90;74.20;;;;;;4858935;29;20057;-67
2021/07/19 09:57:00;;;;;;;9.60;7.78;;;27.90;73.30;;;;;;4859026;29;20156;-66
2021/07/19 10:00:04;;;;;;;12.95;8.65;;;27.90;74.40;;;;;;4858819;29;20130;-67
2021/07/19 10:03:19;;;;;;;15.63;8.35;;;27.90;73.20;;;;;;4858609;29;20073;-67
2021/07/19 10:06:29;;;;;;;13.85;8.88;;;28.00;72.60;;;;;;4858677;29;20520;-67
2021/07/19 10:09:38;;;;;;;21.40;8.70;;;27.90;73.70;;;;;;4860386;29;20052;-67
2021/07/19 10:12:42;;;;;;;10.40;8.10;;;27.70;73.20;;;;;;4862189;29;20056;-66
2021/07/19 10:15:48;;;;;;;7.90;7.10;;;27.60;72.50;;;;;;4862408;29;20045;-68
2021/07/19 10:18:53;;;;;;;10.40;6.47;;;27.40;68.40;;;;;;4861647;29;20057;-67
2021/07/19 10:21:59;;;;;;;9.75;6.38;;;27.30;70.30;;;;;;4862202;29;20045;-67
2021/07/19 10:25:03;;;;;;;8.73;6.38;;;27.20;69.10;;;;;;4862387;29;20469;-67
2021/07/19 10:28:07;;;;;;;7.97;6.07;;;27.20;69.60;;;;;;4862302;29;20080;-67
2021/07/19 10:31:12;;;;;;;9.50;7.05;;;27.20;70.70;;;;;;4862322;29;20049;-67
2021/07/19 10:34:19;;;;;;;12.18;7.28;;;27.20;71.30;;;;;;4862045;29;20520;-67
2021/07/19 10:37:32;;;;;;;9.93;7.32;;;27.50;70.80;;;;;;4862035;29;20056;-66
2021/07/19 10:40:40;;;;;;;16.52;8.43;;;27.70;70.20;;;;;;4861913;29;20048;-67
2021/07/19 10:43:45;;;;;;;10.75;7.90;;;28.00;69.40;;;;;;4861858;29;20049;-66
2021/07/19 10:46:48;;;;;;;15.43;8.20;;;28.10;68.30;;;;;;4861849;29;20076;-66
2021/07/19 10:50:00;;;;;;;13.13;7.85;;;28.30;69.60;;;;;;4861951;29;20057;-66
2021/07/19 10:53:19;;;;;;;11.75;8.52;;;28.50;69.10;;;;;;4862052;29;20112;-67
2021/07/19 10:56:29;;;;;;;13.43;8.40;;;28.60;68.70;;;;;;4860704;29;20048;-67
2021/07/19 10:59:37;;;;;;;11.27;8.40;;;28.60;68.50;;;;;;4861613;29;20053;-65
2021/07/19 11:02:41;;;;;;;10.45;8.02;;;28.60;67.70;;;;;;4861557;29;20052;-67
2021/07/19 11:05:49;;;;;;;11.93;8.05;;;28.50;67.20;;;;;;4861796;29;20037;-67
2021/07/19 11:08:54;;;;;;;17.73;8.35;;;28.30;67.70;;;;;;4860623;29;20056;-66
2021/07/19 11:12:10;;;;;;;18.02;9.00;;;28.30;68.10;;;;;;4861040;29;20056;-68
2021/07/19 11:15:13;;;;;;;17.30;10.23;;;28.40;68.40;;;;;;4861649;29;20057;-68
2021/07/19 11:18:19;;;;;;;25.10;10.45;;;28.30;71.10;;;;;;4861309;29;20688;-69
2021/07/19 11:21:25;;;;;;;14.60;10.65;;;28.10;73.60;;;;;;4861123;29;20057;-69
2021/07/19 11:24:40;;;;;;;14.43;10.32;;;27.90;74.80;;;;;;4861272;29;20489;-68
2021/07/19 11:27:48;;;;;;;17.75;10.27;;;27.70;75.80;;;;;;4860956;29;20552;-68
2021/07/19 11:31:09;;;;;;;16.13;10.48;;;27.70;76.70;;;;;;4861191;29;20512;-68
2021/07/19 11:34:23;;;;;;;15.77;9.50;;;27.80;76.00;;;;;;4861189;29;20049;-67
2021/07/19 11:37:32;;;;;;;14.68;9.88;;;27.70;74.50;;;;;;4860942;29;20445;-67
2021/07/19 11:40:38;;;;;;;12.70;9.13;;;27.70;76.00;;;;;;4861205;29;20048;-68
2021/07/19 11:43:44;;;;;;;13.60;9.02;;;27.60;76.50;;;;;;4861036;29;20052;-68
2021/07/19 11:46:50;;;;;;;13.13;8.90;;;27.40;76.00;;;;;;4860184;29;20053;-69
2021/07/19 11:50:05;;;;;;;15.07;9.82;;;27.40;77.10;;;;;;4861475;29;20298;-68
2021/07/19 11:53:09;;;;;;;25.17;8.73;;;27.30;76.20;;;;;;4860951;29;20049;-68
2021/07/19 11:56:13;;;;;;;14.82;9.02;;;27.30;76.80;;;;;;4861003;29;20048;-68
2021/07/19 11:59:28;;;;;;;12.13;8.13;;;27.30;75.90;;;;;;4861024;29;20052;-67
2021/07/19 12:02:31;;;;;;;18.95;8.73;;;27.30;74.80;;;;;;4860841;29;20409;-68
2021/07/19 12:05:36;;;;;;;12.85;10.13;;;27.30;75.00;;;;;;4860619;29;20075;-68
2021/07/19 12:08:40;;;;;;;12.10;8.15;;;27.50;74.00;;;;;;4860393;29;20052;-69
2021/07/19 12:11:52;;;;;;;12.57;8.27;;;27.70;73.70;;;;;;4860449;29;20065;-69
2021/07/19 12:15:01;;;;;;;11.73;7.65;;;27.80;72.10;;;;;;4860339;29;20052;-69
2021/07/19 12:18:05;;;;;;;13.07;8.10;;;27.90;71.50;;;;;;4860544;29;20496;-68
2021/07/19 12:21:17;;;;;;;12.30;8.48;;;28.10;71.20;;;;;;4860441;29;20052;-68
2021/07/19 12:24:26;;;;;;;14.00;8.95;;;28.10;71.40;;;;;;4860684;29;20048;-70
2021/07/19 12:27:30;;;;;;;10.82;9.07;;;28.20;69.80;;;;;;4859557;29;20055;-70
2021/07/19 12:30:34;;;;;;;11.50;8.85;;;28.20;68.40;;;;;;4859763;29;20508;-68
2021/07/19 12:33:38;;;;;;;12.05;8.98;;;28.30;69.10;;;;;;4860020;29;20044;-68
2021/07/19 12:36:47;;;;;;;13.23;8.50;;;28.30;69.40;;;;;;4860326;29;20064;-69
2021/07/19 12:39:53;;;;;;;20.45;9.25;;;28.30;69.40;;;;;;4860363;29;20041;-69
2021/07/19 12:42:58;;;;;;;16.27;9.55;;;28.30;69.90;;;;;;4860168;29;20049;-69
2021/07/19 12:46:02;;;;;;;13.93;10.05;;;28.20;69.20;;;;;;4859775;29;20528;-68
2021/07/19 12:49:07;;;;;;;18.00;9.13;;;28.20;69.30;;;;;;4858864;29;20080;-68
2021/07/19 12:52:16;;;;;;;10.30;8.48;;;28.20;69.20;;;;;;4859907;29;20480;-69
2021/07/19 12:55:23;;;;;;;14.00;9.00;;;28.10;69.30;;;;;;4860047;29;20508;-68
2021/07/19 12:58:27;;;;;;;14.80;9.18;;;28.10;69.80;;;;;;4859640;29;20048;-67
2021/07/19 13:01:37;;;;;;;12.85;9.23;;;28.10;71.10;;;;;;4859481;29;20045;-69
2021/07/19 13:04:41;;;;;;;11.65;7.57;;;28.10;71.50;;;;;;4858959;29;20048;-67
2021/07/19 13:07:45;;;;;;;11.93;8.15;;;28.00;72.00;;;;;;4858590;29;20070;-67
2021/07/19 13:10:49;;;;;;;12.75;8.07;;;27.90;72.20;;;;;;4859293;29;20045;-69
2021/07/19 13:13:53;;;;;;;14.00;8.30;;;27.80;72.40;;;;;;4859358;29;20076;-68
2021/07/19 13:17:01;;;;;;;18.50;10.10;;;27.70;72.30;;;;;;4859454;29;20044;-68
2021/07/19 13:20:10;;;;;;;14.93;8.40;;;27.60;77.30;;;;;;4859501;29;20068;-67
2021/07/19 13:23:18;;;;;;;19.80;10.43;;;27.50;79.50;;;;;;4858453;29;20064;-69
2021/07/19 13:26:28;;;;;;;17.52;10.52;;;27.30;82.50;;;;;;4859510;29;20571;-69
2021/07/19 13:29:32;;;;;;;20.77;11.38;;;27.10;84.30;;;;;;4858353;29;20068;-68
2021/07/19 13:32:37;;;;;;;30.05;13.02;;;26.90;85.10;;;;;;4859367;29;20048;-68
2021/07/19 13:35:45;;;;;;;24.08;13.23;;;26.70;86.80;;;;;;4858276;29;20068;-68
2021/07/19 13:38:49;;;;;;;23.30;12.77;;;26.60;87.30;;;;;;4858988;29;20056;-69
2021/07/19 13:42:08;;;;;;;30.48;14.63;;;26.60;87.60;;;;;;4858083;29;20041;-67
2021/07/19 13:45:24;;;;;;;18.98;12.48;;;26.50;88.70;;;;;;4858457;29;20572;-68
2021/07/19 13:48:29;;;;;;;24.75;10.20;;;26.40;88.60;;;;;;4858899;29;20417;-68
2021/07/19 13:51:33;;;;;;;15.65;7.65;;;26.40;88.20;;;;;;4858714;29;20048;-67
2021/07/19 13:54:37;;;;;;;12.95;7.63;;;26.30;88.00;;;;;;4858088;29;20048;-72
2021/07/19 13:57:41;;;;;;;20.65;8.18;;;26.30;88.80;;;;;;4858812;29;20049;-69
2021/07/19 14:00:46;;;;;;;13.02;9.02;;;26.20;89.30;;;;;;4858740;29;20052;-70
2021/07/19 14:03:50;;;;;;;17.95;8.93;;;26.20;89.90;;;;;;4858831;29;20053;-68
2021/07/19 14:06:56;;;;;;;15.75;9.18;;;26.20;90.20;;;;;;4847397;29;20052;-68
2021/07/19 14:10:00;;;;;;;13.23;8.38;;;26.20;90.40;;;;;;4858918;29;20061;-68
2021/07/19 14:13:04;;;;;;;22.50;8.38;;;26.40;90.40;;;;;;4858521;29;20064;-68
2021/07/19 14:16:09;;;;;;;10.25;5.95;;;28.00;85.40;;;;;;4858613;29;20048;-69
2021/07/19 14:19:13;;;;;;;8.50;5.80;;;28.90;80.70;;;;;;4858730;29;20064;-68
2021/07/19 14:22:17;;;;;;;14.48;6.45;;;29.60;78.60;;;;;;4858775;29;20053;-69
2021/07/19 14:25:21;;;;;;;12.88;6.80;;;29.80;77.80;;;;;;4858397;29;20053;-68
2021/07/19 14:28:25;;;;;;;10.15;6.30;;;29.40;78.50;;;;;;4858502;29;20056;-67
2021/07/19 14:31:29;;;;;;;9.32;6.32;;;29.40;78.80;;;;;;4857498;29;20048;-67
2021/07/19 14:37:40;;;;;;;12.80;9.05;;;29.20;77.70;;;;;;4636484;29;20054;-78
2021/07/19 14:40:44;;;;;;;14.95;9.40;;;29.20;78.10;;;;;;4858482;29;20057;-74
2021/07/19 14:43:48;;;;;;;17.15;9.30;;;29.00;78.10;;;;;;4858376;29;20045;-70
2021/07/19 14:46:52;;;;;;;16.45;9.38;;;28.90;78.40;;;;;;4858325;29;20057;-72
2021/07/19 14:49:56;;;;;;;20.00;9.60;;;29.00;78.30;;;;;;4858062;29;20052;-72
2021/07/19 14:53:01;;;;;;;20.05;10.38;;;29.10;77.80;;;;;;4857921;29;20052;-71
2021/07/19 14:56:06;;;;;;;12.65;10.18;;;28.40;80.00;;;;;;4860905;29;20052;-75
2021/07/19 14:59:10;;;;;;;17.52;10.80;;;27.70;82.20;;;;;;4861651;29;20060;-74
2021/07/19 15:02:14;;;;;;;15.73;9.15;;;27.20;84.40;;;;;;4861662;29;20060;-76
2021/07/19 15:05:18;;;;;;;15.13;9.18;;;26.90;85.10;;;;;;4861281;29;20048;-77
2021/07/19 15:08:22;;;;;;;12.95;8.52;;;26.70;85.80;;;;;;4860388;29;20512;-75
2021/07/19 15:11:26;;;;;;;10.48;8.00;;;26.60;86.30;;;;;;4861024;29;20045;-75
2021/07/19 15:14:30;;;;;;;13.05;8.00;;;26.50;85.70;;;;;;4861589;29;20433;-73
2021/07/19 15:17:34;;;;;;;11.55;7.57;;;26.40;85.80;;;;;;4861007;29;20052;-74
2021/07/19 15:20:38;;;;;;;15.25;8.20;;;26.40;85.20;;;;;;4860785;29;20052;-74
2021/07/19 15:23:42;;;;;;;13.50;8.02;;;26.40;85.50;;;;;;4861144;29;20053;-71
2021/07/19 15:26:46;;;;;;;11.57;7.32;;;26.50;85.00;;;;;;4861074;29;20045;-71
2021/07/19 15:29:50;;;;;;;17.73;7.05;;;26.40;85.90;;;;;;4861443;29;20057;-70
2021/07/19 15:32:54;;;;;;;13.07;7.80;;;26.40;85.00;;;;;;4861132;29;20053;-71
2021/07/19 15:35:58;;;;;;;9.23;7.15;;;26.50;85.50;;;;;;4860494;29;20076;-72
2021/07/19 15:39:03;;;;;;;10.57;6.35;;;26.60;83.90;;;;;;4860935;29;20049;-74
2021/07/19 15:42:07;;;;;;;11.20;6.10;;;26.60;81.90;;;;;;4861018;29;20060;-72
2021/07/19 15:45:15;;;;;;;10.05;6.63;;;26.60;82.70;;;;;;4860964;29;20049;-71
2021/07/19 15:48:19;;;;;;;14.45;7.25;;;26.60;82.70;;;;;;4861031;29;20074;-75
2021/07/19 15:51:23;;;;;;;16.00;8.25;;;26.70;85.00;;;;;;4860044;29;20045;-76
2021/07/19 15:54:27;;;;;;;19.88;8.88;;;26.70;86.00;;;;;;4860888;29;20052;-75
2021/07/19 15:57:32;;;;;;;12.68;7.80;;;26.70;85.30;;;;;;4860547;29;20052;-76